createdAt,value
2017-05-15T00:00:09.634Z,20.08
2017-05-15T00:00:22.773Z,20.19
2017-05-15T00:00:35.933Z,20.1
2017-05-15T00:01:03.290Z,20.12
2017-05-15T00:01:15.991Z,20.19
2017-05-15T00:01:29.297Z,20.19
2017-05-15T00:01:41.452Z,20.1
2017-05-15T00:01:55.629Z,20.19
2017-05-15T00:02:08.755Z,20.08
2017-05-15T00:02:21.372Z,20.18
2017-05-15T00:02:34.565Z,20.1
2017-05-15T00:02:47.737Z,20.11
2017-05-15T00:03:00.350Z,20.11
2017-05-15T00:03:15.709Z,20.12
2017-05-15T00:03:29.170Z,20.22
2017-05-15T00:03:42.620Z,20.16
2017-05-15T00:03:55.272Z,20.2
2017-05-15T00:04:08.397Z,20.18
2017-05-15T00:04:21.618Z,20.12
2017-05-15T00:04:34.868Z,20.1
2017-05-15T00:04:47.581Z,20.08
2017-05-15T00:05:00.844Z,20.12
2017-05-15T00:05:18.775Z,20.18
2017-05-15T00:05:32.021Z,20.12
2017-05-15T00:05:45.785Z,20.11
2017-05-15T00:05:59.041Z,20.15
2017-05-15T00:06:11.247Z,20.12
2017-05-15T00:06:24.439Z,20.11
2017-05-15T00:06:37.679Z,20.08
2017-05-15T00:07:21.476Z,20.08
2017-05-15T00:07:34.639Z,20.11
2017-05-15T00:07:50.815Z,20.04
2017-05-15T00:08:04.083Z,20.04
2017-05-15T00:08:19.364Z,20.15
2017-05-15T00:08:32.662Z,20.11
2017-05-15T00:09:07.728Z,20.12
2017-05-15T00:09:22.348Z,20.07
2017-05-15T00:09:39.319Z,20.05
2017-05-15T00:09:56.350Z,20.05
2017-05-15T00:10:09.085Z,20.07
2017-05-15T00:10:40.985Z,19.98
2017-05-15T00:10:53.618Z,19.95
2017-05-15T00:11:13.853Z,19.97
2017-05-15T00:11:27.126Z,20
2017-05-15T00:11:40.482Z,19.95
2017-05-15T00:11:53.707Z,19.98
2017-05-15T00:12:06.954Z,19.92
2017-05-15T00:12:20.320Z,19.92
2017-05-15T00:12:33.762Z,19.97
2017-05-15T00:12:47.424Z,19.92
2017-05-15T00:13:01.532Z,19.93
2017-05-15T00:13:15.779Z,19.86
2017-05-15T00:13:28.917Z,19.93
2017-05-15T00:13:42.076Z,19.86
2017-05-15T00:13:54.728Z,19.95
2017-05-15T00:14:07.432Z,19.83
2017-05-15T00:14:20.504Z,19.92
2017-05-15T00:14:33.733Z,19.8
2017-05-15T00:14:48.377Z,19.83
2017-05-15T00:15:01.801Z,19.78
2017-05-15T00:15:15.252Z,19.75
2017-05-15T00:15:27.984Z,19.72
2017-05-15T00:15:40.642Z,19.75
2017-05-15T00:15:54.961Z,19.78
2017-05-15T00:16:08.225Z,19.75
2017-05-15T00:16:26.691Z,19.74
2017-05-15T00:16:40.167Z,19.67
2017-05-15T00:16:53.458Z,19.75
2017-05-15T00:17:07.608Z,19.74
2017-05-15T00:17:20.468Z,19.71
2017-05-15T00:17:33.680Z,19.68
2017-05-15T00:17:48.151Z,19.71
2017-05-15T00:18:01.270Z,19.71
2017-05-15T00:18:13.875Z,19.71
2017-05-15T00:18:27.216Z,19.67
2017-05-15T00:18:45.547Z,19.71
2017-05-15T00:19:18.088Z,19.71
2017-05-15T00:19:32.032Z,19.78
2017-05-15T00:19:44.647Z,19.7
2017-05-15T00:20:17.136Z,19.71
2017-05-15T00:20:30.364Z,19.68
2017-05-15T00:20:44.052Z,19.67
2017-05-15T00:21:02.518Z,19.71
2017-05-15T00:21:15.239Z,19.71
2017-05-15T00:21:28.444Z,19.78
2017-05-15T00:21:41.636Z,19.72
2017-05-15T00:21:54.818Z,19.74
2017-05-15T00:22:07.728Z,19.72
2017-05-15T00:22:21.121Z,19.78
2017-05-15T00:22:34.447Z,19.78
2017-05-15T00:22:47.602Z,19.82
2017-05-15T00:23:02.826Z,19.78
2017-05-15T00:23:16.500Z,19.74
2017-05-15T00:23:31.699Z,19.82
2017-05-15T00:23:44.942Z,19.75
2017-05-15T00:24:02.276Z,19.75
2017-05-15T00:24:14.936Z,19.82
2017-05-15T00:24:28.228Z,19.79
2017-05-15T00:24:45.360Z,19.75
2017-05-15T00:24:58.035Z,19.83
2017-05-15T00:25:11.203Z,19.78
2017-05-15T00:25:24.455Z,19.75
2017-05-15T00:25:37.422Z,19.78
2017-05-15T00:26:25.736Z,19.83
2017-05-15T00:26:38.462Z,19.8
2017-05-15T00:29:22.657Z,19.68
2017-05-15T00:29:40.663Z,19.68
2017-05-15T00:32:17.277Z,19.68
2017-05-15T00:32:31.279Z,19.65
2017-05-15T00:33:11.377Z,19.71
2017-05-15T00:33:38.766Z,19.67
2017-05-15T00:34:30.229Z,19.64
2017-05-15T00:34:44.844Z,19.68
2017-05-15T00:35:05.096Z,19.7
2017-05-15T00:35:22.608Z,19.64
2017-05-15T00:35:36.935Z,19.67
2017-05-15T00:35:55.226Z,19.56
2017-05-15T00:36:14.214Z,19.53
2017-05-15T00:36:28.651Z,19.56
2017-05-15T00:36:44.383Z,19.55
2017-05-15T00:36:58.283Z,19.6
2017-05-15T00:37:21.868Z,19.56
2017-05-15T00:37:40.140Z,19.47
2017-05-15T00:38:22.261Z,19.47
2017-05-15T00:38:37.849Z,19.52
2017-05-15T00:38:55.954Z,19.49
2017-05-15T00:39:09.240Z,19.45
2017-05-15T00:39:29.171Z,19.55
2017-05-15T00:39:44.427Z,19.45
2017-05-15T00:40:28.364Z,19.43
2017-05-15T00:40:45.692Z,19.42
2017-05-15T00:41:03.461Z,19.45
2017-05-15T00:41:41.534Z,19.45
2017-05-15T00:41:59.714Z,19.47
2017-05-15T00:42:12.145Z,19.47
2017-05-15T00:43:20.832Z,19.34
2017-05-15T00:43:41.585Z,19.4
2017-05-15T00:45:06.413Z,19.49
2017-05-15T00:45:19.583Z,19.38
2017-05-15T00:45:48.143Z,19.49
2017-05-15T00:46:07.413Z,19.46
2017-05-15T00:46:24.265Z,19.38
2017-05-15T00:46:38.830Z,19.38
2017-05-15T00:47:26.095Z,19.55
2017-05-15T00:48:14.929Z,19.42
2017-05-15T00:49:30.660Z,19.4
2017-05-15T01:05:18.230Z,19.23
2017-05-15T01:05:30.838Z,19.19
2017-05-15T01:06:15.240Z,19.19
2017-05-15T01:06:41.502Z,19.23
2017-05-15T01:07:40.708Z,19.12
2017-05-15T01:08:10.006Z,19.05
2017-05-15T01:08:23.998Z,19.16
2017-05-15T01:08:39.845Z,19.1
2017-05-15T01:09:04.308Z,19.1
2017-05-15T01:10:31.123Z,19.06
2017-05-15T01:10:47.161Z,19.13
2017-05-15T01:11:09.091Z,19.12
2017-05-15T01:11:47.524Z,19.23
2017-05-15T01:12:00.738Z,19.23
2017-05-15T01:12:38.758Z,19.17
2017-05-15T01:12:51.917Z,19.2
2017-05-15T01:13:10.927Z,19.19
2017-05-15T01:13:24.774Z,19.24
2017-05-15T01:14:43.714Z,19.2
2017-05-15T01:16:02.705Z,19.27
2017-05-15T01:17:38.391Z,19.19
2017-05-15T01:17:52.421Z,19.2
2017-05-15T01:18:05.060Z,19.25
2017-05-15T01:18:24.499Z,19.19
2017-05-15T01:18:37.931Z,19.27
2017-05-15T01:19:30.417Z,19.23
2017-05-15T01:20:14.760Z,19.27
2017-05-15T01:21:50.245Z,19.2
2017-05-15T01:22:18.345Z,19.24
2017-05-15T01:23:03.101Z,19.25
2017-05-15T01:26:10.186Z,19.25
2017-05-15T01:26:22.861Z,19.24
2017-05-15T01:27:03.277Z,19.13
2017-05-15T01:27:53.458Z,19.2
2017-05-15T01:28:43.842Z,19.09
2017-05-15T01:29:30.650Z,18.96
2017-05-15T01:29:52.686Z,18.97
2017-05-15T01:30:37.053Z,18.84
2017-05-15T01:32:46.447Z,18.99
2017-05-15T01:33:37.347Z,18.91
2017-05-15T01:33:51.359Z,18.94
2017-05-15T01:35:32.595Z,18.99
2017-05-15T01:35:49.600Z,18.96
2017-05-15T01:36:32.591Z,18.99
2017-05-15T01:38:09.597Z,19.1
2017-05-15T01:38:46.659Z,18.99
2017-05-15T01:41:00.691Z,19.02
2017-05-15T01:42:40.424Z,19
2017-05-15T01:43:24.749Z,18.99
2017-05-15T01:43:40.172Z,19.07
2017-05-15T01:44:24.262Z,18.97
2017-05-15T01:45:20.454Z,18.93
2017-05-15T01:45:34.421Z,18.94
2017-05-15T01:46:22.202Z,18.9
2017-05-15T01:47:37.986Z,18.87
2017-05-15T01:49:13.843Z,18.78
2017-05-15T01:49:26.467Z,18.79
2017-05-15T01:50:29.007Z,18.71
2017-05-15T01:52:33.212Z,18.66
2017-05-15T01:53:20.023Z,18.57
2017-05-15T01:54:20.480Z,18.57
2017-05-15T01:55:48.954Z,18.47
2017-05-15T01:56:21.833Z,18.53
2017-05-15T01:58:59.091Z,18.44
2017-05-15T01:59:56.641Z,18.44
2017-05-15T02:00:40.511Z,18.38
2017-05-15T02:01:24.859Z,18.41
2017-05-15T02:02:09.231Z,18.47
2017-05-15T02:02:38.068Z,18.39
2017-05-15T02:03:09.920Z,18.39
2017-05-15T02:03:43.590Z,18.47
2017-05-15T02:04:02.049Z,18.5
2017-05-15T02:05:33.766Z,18.5
2017-05-15T02:06:19.258Z,18.65
2017-05-15T02:06:46.058Z,18.59
2017-05-15T02:07:36.920Z,18.61
2017-05-15T02:08:19.580Z,18.53
2017-05-15T02:08:32.456Z,18.59
2017-05-15T02:08:45.204Z,18.57
2017-05-15T02:09:19.259Z,18.59
2017-05-15T02:09:36.908Z,18.57
2017-05-15T02:09:55.766Z,18.66
2017-05-15T02:10:08.043Z,18.63
2017-05-15T02:10:21.886Z,18.66
2017-05-15T02:10:35.069Z,18.66
2017-05-15T02:10:47.728Z,18.69
2017-05-15T02:11:01.545Z,18.72
2017-05-15T02:11:16.820Z,18.63
2017-05-15T02:11:31.966Z,18.69
2017-05-15T02:11:44.602Z,18.69
2017-05-15T02:11:57.289Z,18.71
2017-05-15T02:12:10.779Z,18.71
2017-05-15T02:12:24.215Z,18.68
2017-05-15T02:12:37.431Z,18.72
2017-05-15T02:12:53.092Z,18.68
2017-05-15T02:13:07.279Z,18.71
2017-05-15T02:13:40.407Z,18.68
2017-05-15T02:14:02.433Z,18.76
2017-05-15T02:14:15.569Z,18.81
2017-05-15T02:14:28.839Z,18.72
2017-05-15T02:14:44.545Z,18.79
2017-05-15T02:15:00.806Z,18.74
2017-05-15T02:15:30.868Z,18.75
2017-05-15T02:15:45.325Z,18.72
2017-05-15T02:16:33.294Z,18.71
2017-05-15T02:16:46.203Z,18.68
2017-05-15T02:16:59.365Z,18.68
2017-05-15T02:17:31.281Z,18.68
2017-05-15T02:17:44.516Z,18.71
2017-05-15T02:17:57.753Z,18.63
2017-05-15T02:18:09.898Z,18.66
2017-05-15T02:18:23.294Z,18.66
2017-05-15T02:18:36.470Z,18.6
2017-05-15T02:18:49.711Z,18.59
2017-05-15T02:19:02.357Z,18.6
2017-05-15T02:19:16.345Z,18.61
2017-05-15T02:19:40.944Z,18.51
2017-05-15T02:20:05.699Z,18.57
2017-05-15T02:20:19.201Z,18.5
2017-05-15T02:20:40.764Z,18.5
2017-05-15T02:20:54.316Z,18.56
2017-05-15T02:21:13.258Z,18.47
2017-05-15T02:21:26.459Z,18.41
2017-05-15T02:21:40.379Z,18.45
2017-05-15T02:21:53.684Z,18.39
2017-05-15T02:22:07.203Z,18.44
2017-05-15T02:22:20.650Z,18.51
2017-05-15T02:22:33.768Z,18.45
2017-05-15T02:22:48.073Z,18.42
2017-05-15T02:23:03.501Z,18.45
2017-05-15T02:23:37.079Z,18.42
2017-05-15T02:23:50.450Z,18.36
2017-05-15T02:24:03.662Z,18.44
2017-05-15T02:24:19.273Z,18.36
2017-05-15T02:24:44.312Z,18.36
2017-05-15T02:24:59.068Z,18.38
2017-05-15T02:25:44.184Z,18.36
2017-05-15T02:26:12.516Z,18.35
2017-05-15T02:26:25.369Z,18.36
2017-05-15T02:26:39.444Z,18.29
2017-05-15T02:27:15.092Z,18.34
2017-05-15T02:27:33.274Z,18.34
2017-05-15T02:28:17.349Z,18.39
2017-05-15T02:28:46.853Z,18.42
2017-05-15T02:29:00.279Z,18.38
2017-05-15T02:29:12.416Z,18.35
2017-05-15T02:29:27.005Z,18.27
2017-05-15T02:29:39.681Z,18.34
2017-05-15T02:29:53.082Z,18.38
2017-05-15T02:30:33.566Z,18.44
2017-05-15T02:30:49.404Z,18.49
2017-05-15T02:31:02.101Z,18.42
2017-05-15T02:31:17.781Z,18.41
2017-05-15T02:31:36.013Z,18.42
2017-05-15T02:31:48.729Z,18.47
2017-05-15T02:32:01.833Z,18.42
2017-05-15T02:32:15.659Z,18.44
2017-05-15T02:32:30.697Z,18.47
2017-05-15T02:32:43.833Z,18.47
2017-05-15T02:32:56.723Z,18.47
2017-05-15T02:33:09.902Z,18.36
2017-05-15T02:33:23.135Z,18.41
2017-05-15T02:33:36.340Z,18.41
2017-05-15T02:33:49.041Z,18.39
2017-05-15T02:34:02.289Z,18.39
2017-05-15T02:34:20.612Z,18.5
2017-05-15T02:34:33.801Z,18.45
2017-05-15T02:34:47.446Z,18.44
2017-05-15T02:35:00.189Z,18.42
2017-05-15T02:35:39.892Z,18.42
2017-05-15T02:35:53.053Z,18.42
2017-05-15T02:36:06.175Z,18.45
2017-05-15T02:36:19.657Z,18.42
2017-05-15T02:36:34.082Z,18.47
2017-05-15T02:36:47.260Z,18.41
2017-05-15T02:37:00.789Z,18.41
2017-05-15T02:37:12.929Z,18.47
2017-05-15T02:37:25.683Z,18.44
2017-05-15T02:37:37.870Z,18.44
2017-05-15T02:37:50.990Z,18.45
2017-05-15T02:38:04.214Z,18.42
2017-05-15T02:38:17.359Z,18.41
2017-05-15T02:38:30.054Z,18.44
2017-05-15T02:38:42.765Z,18.42
2017-05-15T02:38:56.020Z,18.45
2017-05-15T02:39:09.196Z,18.45
2017-05-15T02:39:22.402Z,18.44
2017-05-15T02:39:35.076Z,18.44
2017-05-15T02:39:47.994Z,18.45
2017-05-15T02:40:01.191Z,18.42
2017-05-15T02:40:14.088Z,18.39
2017-05-15T02:40:28.238Z,18.39
2017-05-15T02:40:40.946Z,18.47
2017-05-15T02:40:54.144Z,18.49
2017-05-15T02:41:07.371Z,18.42
2017-05-15T02:41:19.991Z,18.49
2017-05-15T02:41:33.169Z,18.44
2017-05-15T02:41:46.380Z,18.36
2017-05-15T02:42:00.820Z,18.42
2017-05-15T02:42:13.967Z,18.35
2017-05-15T02:42:27.333Z,18.38
2017-05-15T02:42:40.460Z,18.39
2017-05-15T02:42:54.483Z,18.41
2017-05-15T02:43:07.164Z,18.32
2017-05-15T02:43:20.375Z,18.39
2017-05-15T02:43:33.560Z,18.42
2017-05-15T02:43:46.805Z,18.41
2017-05-15T02:43:59.989Z,18.32
2017-05-15T02:44:13.142Z,18.36
2017-05-15T02:44:26.304Z,18.31
2017-05-15T02:44:49.446Z,18.41
2017-05-15T02:45:02.609Z,18.36
2017-05-15T02:45:15.258Z,18.34
2017-05-15T02:45:28.396Z,18.32
2017-05-15T02:45:41.066Z,18.35
2017-05-15T02:45:54.228Z,18.31
2017-05-15T02:46:07.422Z,18.32
2017-05-15T02:46:20.067Z,18.29
2017-05-15T02:46:32.724Z,18.29
2017-05-15T02:46:45.902Z,18.24
2017-05-15T02:46:59.068Z,18.24
2017-05-15T02:47:12.228Z,18.29
2017-05-15T02:47:25.460Z,18.24
2017-05-15T02:47:37.594Z,18.21
2017-05-15T02:47:59.081Z,18.16
2017-05-15T02:48:12.286Z,18.19
2017-05-15T02:48:25.858Z,18.17
2017-05-15T02:48:38.543Z,18.17
2017-05-15T02:48:53.131Z,18.11
2017-05-15T02:49:06.274Z,18.19
2017-05-15T02:49:19.739Z,18.14
2017-05-15T02:49:32.950Z,18.13
2017-05-15T02:49:46.832Z,18.13
2017-05-15T02:49:59.986Z,18.13
2017-05-15T02:50:12.215Z,18.11
2017-05-15T02:50:25.396Z,18.06
2017-05-15T02:50:38.098Z,18.11
2017-05-15T02:50:51.342Z,18.17
2017-05-15T02:51:04.521Z,18.05
2017-05-15T02:51:17.668Z,18.08
2017-05-15T02:51:30.637Z,18.1
2017-05-15T02:51:43.846Z,18.1
2017-05-15T02:51:56.606Z,18.06
2017-05-15T02:52:09.408Z,18.14
2017-05-15T02:52:22.672Z,18.03
2017-05-15T02:52:36.047Z,17.99
2017-05-15T02:52:48.744Z,18.13
2017-05-15T02:53:01.938Z,18.13
2017-05-15T02:53:15.074Z,18.02
2017-05-15T02:53:28.247Z,18.1
2017-05-15T02:53:40.398Z,17.98
2017-05-15T02:53:53.593Z,18.02
2017-05-15T02:54:06.881Z,18.01
2017-05-15T02:54:19.051Z,17.98
2017-05-15T02:54:32.977Z,18.02
2017-05-15T02:54:46.207Z,18.05
2017-05-15T02:54:58.868Z,18.1
2017-05-15T02:55:12.000Z,18.03
2017-05-15T02:55:25.150Z,18.11
2017-05-15T02:55:37.818Z,18.08
2017-05-15T02:55:50.998Z,18.13
2017-05-15T02:56:04.176Z,18.16
2017-05-15T02:56:17.396Z,18.21
2017-05-15T02:56:30.096Z,18.21
2017-05-15T02:56:43.244Z,18.24
2017-05-15T02:56:56.444Z,18.23
2017-05-15T02:57:09.607Z,18.17
2017-05-15T02:57:22.189Z,18.31
2017-05-15T02:57:35.313Z,18.24
2017-05-15T02:57:47.927Z,18.31
2017-05-15T02:58:01.173Z,18.27
2017-05-15T02:58:13.360Z,18.29
2017-05-15T02:58:26.462Z,18.23
2017-05-15T02:58:39.598Z,18.26
2017-05-15T02:58:52.200Z,18.31
2017-05-15T02:59:04.329Z,18.24
2017-05-15T02:59:17.504Z,18.32
2017-05-15T02:59:30.703Z,18.34
2017-05-15T02:59:43.867Z,18.29
2017-05-15T02:59:57.084Z,18.38
2017-05-15T03:00:10.280Z,18.31
2017-05-15T03:00:23.498Z,18.31
2017-05-15T03:00:36.607Z,18.32
2017-05-15T03:00:49.726Z,18.26
2017-05-15T03:01:02.865Z,18.29
2017-05-15T03:01:15.512Z,18.29
2017-05-15T03:01:28.680Z,18.29
2017-05-15T03:01:40.808Z,18.29
2017-05-15T03:01:53.943Z,18.26
2017-05-15T03:02:06.108Z,18.27
2017-05-15T03:02:19.233Z,18.24
2017-05-15T03:02:32.452Z,18.24
2017-05-15T03:02:45.659Z,18.24
2017-05-15T03:02:58.845Z,18.23
2017-05-15T03:03:11.518Z,18.32
2017-05-15T03:03:24.155Z,18.31
2017-05-15T03:03:37.327Z,18.38
2017-05-15T03:03:49.494Z,18.36
2017-05-15T03:04:02.685Z,18.35
2017-05-15T03:04:15.309Z,18.29
2017-05-15T03:04:28.452Z,18.36
2017-05-15T03:04:41.080Z,18.39
2017-05-15T03:04:54.196Z,18.38
2017-05-15T03:05:07.445Z,18.38
2017-05-15T03:05:20.131Z,18.36
2017-05-15T03:05:33.288Z,18.36
2017-05-15T03:05:45.922Z,18.42
2017-05-15T03:05:58.026Z,18.47
2017-05-15T03:06:11.160Z,18.39
2017-05-15T03:06:24.349Z,18.42
2017-05-15T03:06:37.523Z,18.39
2017-05-15T03:06:50.686Z,18.41
2017-05-15T03:07:03.848Z,18.38
2017-05-15T03:07:17.014Z,18.36
2017-05-15T03:07:30.195Z,18.45
2017-05-15T03:07:43.308Z,18.41
2017-05-15T03:07:56.479Z,18.29
2017-05-15T03:08:09.607Z,18.44
2017-05-15T03:08:22.249Z,18.31
2017-05-15T03:08:35.404Z,18.5
2017-05-15T03:08:48.081Z,18.31
2017-05-15T03:09:01.268Z,18.31
2017-05-15T03:09:14.570Z,18.34
2017-05-15T03:09:27.813Z,18.34
2017-05-15T03:09:40.446Z,18.34
2017-05-15T03:09:53.605Z,18.38
2017-05-15T03:10:06.823Z,18.35
2017-05-15T03:10:19.970Z,18.32
2017-05-15T03:10:32.560Z,18.21
2017-05-15T03:10:45.177Z,18.32
2017-05-15T03:10:57.879Z,18.27
2017-05-15T03:11:10.510Z,18.31
2017-05-15T03:11:23.192Z,18.24
2017-05-15T03:11:36.403Z,18.24
2017-05-15T03:11:49.082Z,18.27
2017-05-15T03:12:02.203Z,18.17
2017-05-15T03:12:15.372Z,18.17
2017-05-15T03:12:28.572Z,18.19
2017-05-15T03:12:41.287Z,18.19
2017-05-15T03:12:54.391Z,18.17
2017-05-15T03:13:07.641Z,18.19
2017-05-15T03:13:20.800Z,18.17
2017-05-15T03:13:33.944Z,18.13
2017-05-15T03:13:47.157Z,18.08
2017-05-15T03:14:00.363Z,18.17
2017-05-15T03:14:13.080Z,18.16
2017-05-15T03:14:26.373Z,18.1
2017-05-15T03:14:39.016Z,18.1
2017-05-15T03:14:52.185Z,18.05
2017-05-15T03:15:05.351Z,18.01
2017-05-15T03:15:17.957Z,18.11
2017-05-15T03:15:31.102Z,18.1
2017-05-15T03:15:43.768Z,17.99
2017-05-15T03:15:56.893Z,17.98
2017-05-15T03:16:09.071Z,18.06
2017-05-15T03:16:22.242Z,18.02
2017-05-15T03:16:34.869Z,17.95
2017-05-15T03:16:48.073Z,18.03
2017-05-15T03:17:01.258Z,17.98
2017-05-15T03:17:14.427Z,17.99
2017-05-15T03:17:27.577Z,18.08
2017-05-15T03:17:40.766Z,18.05
2017-05-15T03:17:53.954Z,17.99
2017-05-15T03:18:07.152Z,18.01
2017-05-15T03:18:20.333Z,17.95
2017-05-15T03:18:33.488Z,18.01
2017-05-15T03:18:46.623Z,17.96
2017-05-15T03:18:59.839Z,17.95
2017-05-15T03:19:12.498Z,17.98
2017-05-15T03:19:25.679Z,18.06
2017-05-15T03:19:38.311Z,17.92
2017-05-15T03:19:51.445Z,17.96
2017-05-15T03:20:04.602Z,17.98
2017-05-15T03:20:17.793Z,18.03
2017-05-15T03:20:30.431Z,17.98
2017-05-15T03:20:43.121Z,18.01
2017-05-15T03:20:56.248Z,18.03
2017-05-15T03:21:09.513Z,18.06
2017-05-15T03:21:22.690Z,18.03
2017-05-15T03:21:35.878Z,18.1
2017-05-15T03:21:48.066Z,18.03
2017-05-15T03:22:01.281Z,18.16
2017-05-15T03:22:14.484Z,18.14
2017-05-15T03:22:27.630Z,18.14
2017-05-15T03:22:40.788Z,18.17
2017-05-15T03:22:54.021Z,18.11
2017-05-15T03:23:07.201Z,18.16
2017-05-15T03:23:20.362Z,18.21
2017-05-15T03:23:32.536Z,18.2
2017-05-15T03:23:45.241Z,18.2
2017-05-15T03:23:58.396Z,18.16
2017-05-15T03:24:11.549Z,18.14
2017-05-15T03:24:24.767Z,18.19
2017-05-15T03:24:37.944Z,18.2
2017-05-15T03:24:51.094Z,18.26
2017-05-15T03:25:03.749Z,18.23
2017-05-15T03:25:16.915Z,18.26
2017-05-15T03:25:30.075Z,18.27
2017-05-15T03:25:43.508Z,18.23
2017-05-15T03:25:56.698Z,18.32
2017-05-15T03:26:09.849Z,18.27
2017-05-15T03:26:23.055Z,18.27
2017-05-15T03:26:35.724Z,18.31
2017-05-15T03:26:48.945Z,18.35
2017-05-15T03:27:02.161Z,18.38
2017-05-15T03:27:15.297Z,18.32
2017-05-15T03:27:28.454Z,18.31
2017-05-15T03:27:41.624Z,18.34
2017-05-15T03:27:54.825Z,18.29
2017-05-15T03:28:08.014Z,18.39
2017-05-15T03:28:21.223Z,18.29
2017-05-15T03:28:34.383Z,18.41
2017-05-15T03:28:47.017Z,18.38
2017-05-15T03:29:00.237Z,18.38
2017-05-15T03:29:13.374Z,18.42
2017-05-15T03:29:26.547Z,18.39
2017-05-15T03:29:39.180Z,18.42
2017-05-15T03:29:51.859Z,18.39
2017-05-15T03:30:04.027Z,18.5
2017-05-15T03:30:17.197Z,18.44
2017-05-15T03:30:30.307Z,18.44
2017-05-15T03:30:42.979Z,18.5
2017-05-15T03:30:56.110Z,18.44
2017-05-15T03:31:08.751Z,18.42
2017-05-15T03:31:20.856Z,18.44
2017-05-15T03:31:33.491Z,18.45
2017-05-15T03:31:45.630Z,18.41
2017-05-15T03:31:58.773Z,18.39
2017-05-15T03:32:11.860Z,18.42
2017-05-15T03:32:24.975Z,18.42
2017-05-15T03:32:37.665Z,18.42
2017-05-15T03:32:50.784Z,18.5
2017-05-15T03:33:03.955Z,18.45
2017-05-15T03:33:17.156Z,18.45
2017-05-15T03:33:30.325Z,18.51
2017-05-15T03:33:42.922Z,18.54
2017-05-15T03:33:56.107Z,18.5
2017-05-15T03:34:08.763Z,18.59
2017-05-15T03:34:21.401Z,18.56
2017-05-15T03:34:34.536Z,18.6
2017-05-15T03:34:47.690Z,18.53
2017-05-15T03:35:00.328Z,18.57
2017-05-15T03:35:12.982Z,18.5
2017-05-15T03:35:26.173Z,18.63
2017-05-15T03:35:38.843Z,18.57
2017-05-15T03:35:51.460Z,18.56
2017-05-15T03:36:04.067Z,18.6
2017-05-15T03:36:17.198Z,18.56
2017-05-15T03:36:30.321Z,18.59
2017-05-15T03:36:43.006Z,18.59
2017-05-15T03:36:56.190Z,18.54
2017-05-15T03:37:09.393Z,18.56
2017-05-15T03:37:22.567Z,18.59
2017-05-15T03:37:35.719Z,18.6
2017-05-15T03:37:48.419Z,18.6
2017-05-15T03:38:01.539Z,18.56
2017-05-15T03:38:14.687Z,18.54
2017-05-15T03:38:27.350Z,18.59
2017-05-15T03:38:40.511Z,18.53
2017-05-15T03:38:53.645Z,18.61
2017-05-15T03:39:06.839Z,18.47
2017-05-15T03:39:19.454Z,18.6
2017-05-15T03:39:32.716Z,18.54
2017-05-15T03:39:45.396Z,18.53
2017-05-15T03:39:58.025Z,18.45
2017-05-15T03:40:10.681Z,18.5
2017-05-15T03:40:23.770Z,18.54
2017-05-15T03:40:36.896Z,18.53
2017-05-15T03:40:50.068Z,18.57
2017-05-15T03:41:03.207Z,18.56
2017-05-15T03:41:16.319Z,18.59
2017-05-15T03:41:29.475Z,18.5
2017-05-15T03:41:42.118Z,18.57
2017-05-15T03:41:54.805Z,18.63
2017-05-15T03:42:07.975Z,18.54
2017-05-15T03:42:21.107Z,18.53
2017-05-15T03:42:33.750Z,18.49
2017-05-15T03:42:46.415Z,18.49
2017-05-15T03:42:59.637Z,18.61
2017-05-15T03:43:12.297Z,18.47
2017-05-15T03:43:25.400Z,18.56
2017-05-15T03:43:38.076Z,18.6
2017-05-15T03:43:51.287Z,18.59
2017-05-15T03:44:04.468Z,18.5
2017-05-15T03:44:17.391Z,18.56
2017-05-15T03:44:30.014Z,18.5
2017-05-15T03:44:42.128Z,18.5
2017-05-15T03:44:55.302Z,18.44
2017-05-15T03:45:08.500Z,18.44
2017-05-15T03:45:21.653Z,18.5
2017-05-15T03:45:34.787Z,18.5
2017-05-15T03:45:47.934Z,18.53
2017-05-15T03:46:01.117Z,18.57
2017-05-15T03:46:13.246Z,18.5
2017-05-15T03:46:25.885Z,18.5
2017-05-15T03:46:39.041Z,18.47
2017-05-15T03:46:52.160Z,18.47
2017-05-15T03:47:04.804Z,18.5
2017-05-15T03:47:17.414Z,18.45
2017-05-15T03:47:30.608Z,18.59
2017-05-15T03:47:43.760Z,18.5
2017-05-15T03:47:56.948Z,18.51
2017-05-15T03:48:09.604Z,18.45
2017-05-15T03:48:22.791Z,18.59
2017-05-15T03:48:35.950Z,18.61
2017-05-15T03:48:48.586Z,18.53
2017-05-15T03:49:02.013Z,18.59
2017-05-15T03:49:15.155Z,18.63
2017-05-15T03:49:28.343Z,18.6
2017-05-15T03:49:41.543Z,18.53
2017-05-15T03:49:54.698Z,18.56
2017-05-15T03:50:07.909Z,18.56
2017-05-15T03:50:22.437Z,18.61
2017-05-15T03:50:35.631Z,18.65
2017-05-15T03:50:48.296Z,18.68
2017-05-15T03:51:01.005Z,18.53
2017-05-15T03:51:14.165Z,18.61
2017-05-15T03:51:27.348Z,18.59
2017-05-15T03:51:40.624Z,18.59
2017-05-15T03:51:53.832Z,18.47
2017-05-15T03:52:07.006Z,18.5
2017-05-15T03:52:19.668Z,18.49
2017-05-15T03:52:32.850Z,18.59
2017-05-15T03:52:45.503Z,18.59
2017-05-15T03:52:58.752Z,18.51
2017-05-15T03:53:11.868Z,18.6
2017-05-15T03:53:25.043Z,18.6
2017-05-15T03:53:37.698Z,18.53
2017-05-15T03:53:50.839Z,18.56
2017-05-15T03:54:03.978Z,18.65
2017-05-15T03:54:16.590Z,18.51
2017-05-15T03:54:29.843Z,18.61
2017-05-15T03:54:42.457Z,18.54
2017-05-15T03:54:55.563Z,18.53
2017-05-15T03:55:08.717Z,18.65
2017-05-15T03:55:21.898Z,18.6
2017-05-15T03:55:35.032Z,18.72
2017-05-15T03:55:48.222Z,18.61
2017-05-15T03:56:01.362Z,18.63
2017-05-15T03:56:14.511Z,18.6
2017-05-15T03:56:27.637Z,18.53
2017-05-15T03:56:40.728Z,18.65
2017-05-15T03:56:53.831Z,18.69
2017-05-15T03:57:06.995Z,18.69
2017-05-15T03:57:20.182Z,18.63
2017-05-15T03:57:33.321Z,18.66
2017-05-15T03:57:46.008Z,18.71
2017-05-15T03:57:59.437Z,18.65
2017-05-15T03:58:12.093Z,18.71
2017-05-15T03:58:24.760Z,18.72
2017-05-15T03:58:37.943Z,18.71
2017-05-15T03:58:50.599Z,18.71
2017-05-15T03:59:03.752Z,18.66
2017-05-15T03:59:16.953Z,18.81
2017-05-15T03:59:30.088Z,18.78
2017-05-15T03:59:42.257Z,18.78
2017-05-15T03:59:55.427Z,18.78
2017-05-15T04:00:08.597Z,18.74
2017-05-15T04:00:21.728Z,18.75
2017-05-15T04:00:34.935Z,18.81
2017-05-15T04:00:48.090Z,18.76
2017-05-15T04:01:01.237Z,18.78
2017-05-15T04:01:14.440Z,18.81
2017-05-15T04:01:27.620Z,18.84
2017-05-15T04:01:39.261Z,18.87
2017-05-15T04:01:52.361Z,18.82
2017-05-15T04:02:05.488Z,18.81
2017-05-15T04:02:18.650Z,18.84
2017-05-15T04:02:31.312Z,18.84
2017-05-15T04:02:44.503Z,18.87
2017-05-15T04:02:57.598Z,18.86
2017-05-15T04:03:10.202Z,18.86
2017-05-15T04:03:23.329Z,18.86
2017-05-15T04:03:35.477Z,18.78
2017-05-15T04:03:48.632Z,18.86
2017-05-15T04:04:01.859Z,18.78
2017-05-15T04:04:15.046Z,18.84
2017-05-15T04:04:28.247Z,18.75
2017-05-15T04:04:41.420Z,18.82
2017-05-15T04:04:54.576Z,18.78
2017-05-15T04:05:07.730Z,18.81
2017-05-15T04:05:20.317Z,18.82
2017-05-15T04:05:33.499Z,18.78
2017-05-15T04:05:46.670Z,18.78
2017-05-15T04:05:59.767Z,18.65
2017-05-15T04:06:12.415Z,18.69
2017-05-15T04:06:25.605Z,18.68
2017-05-15T04:06:38.292Z,18.69
2017-05-15T04:06:51.423Z,18.69
2017-05-15T04:07:04.649Z,18.6
2017-05-15T04:07:17.864Z,18.63
2017-05-15T04:07:31.048Z,18.53
2017-05-15T04:07:44.191Z,18.57
2017-05-15T04:07:57.322Z,18.47
2017-05-15T04:08:09.986Z,18.56
2017-05-15T04:08:23.181Z,18.49
2017-05-15T04:08:35.345Z,18.47
2017-05-15T04:08:48.511Z,18.45
2017-05-15T04:09:01.714Z,18.45
2017-05-15T04:09:13.842Z,18.56
2017-05-15T04:09:27.028Z,18.45
2017-05-15T04:09:40.279Z,18.45
2017-05-15T04:09:53.474Z,18.41
2017-05-15T04:10:06.116Z,18.44
2017-05-15T04:10:19.223Z,18.44
2017-05-15T04:10:32.422Z,18.45
2017-05-15T04:10:44.543Z,18.39
2017-05-15T04:10:57.697Z,18.42
2017-05-15T04:11:10.342Z,18.39
2017-05-15T04:11:23.522Z,18.41
2017-05-15T04:11:36.198Z,18.38
2017-05-15T04:11:49.367Z,18.41
2017-05-15T04:12:02.514Z,18.38
2017-05-15T04:12:15.676Z,18.42
2017-05-15T04:12:28.277Z,18.39
2017-05-15T04:12:40.943Z,18.35
2017-05-15T04:12:54.084Z,18.47
2017-05-15T04:13:07.244Z,18.38
2017-05-15T04:13:19.903Z,18.29
2017-05-15T04:13:33.001Z,18.38
2017-05-15T04:13:45.618Z,18.34
2017-05-15T04:13:58.783Z,18.34
2017-05-15T04:14:11.465Z,18.38
2017-05-15T04:14:24.652Z,18.32
2017-05-15T04:14:37.846Z,18.35
2017-05-15T04:14:51.063Z,18.34
2017-05-15T04:15:04.230Z,18.29
2017-05-15T04:15:17.388Z,18.35
2017-05-15T04:15:30.557Z,18.36
2017-05-15T04:15:43.235Z,18.31